createdAt,value
2022-11-30T00:00:58.778Z,9.87
2022-11-30T00:01:58.847Z,9.84
2022-11-30T00:02:58.631Z,9.88
2022-11-30T00:03:58.558Z,9.92
2022-11-30T00:04:58.430Z,9.91
2022-11-30T00:05:58.571Z,10.03
2022-11-30T00:06:58.305Z,9.99
2022-11-30T00:07:58.335Z,10.00
2022-11-30T00:08:58.430Z,10.09
2022-11-30T00:09:58.183Z,10.03
2022-11-30T00:10:58.242Z,10.03
2022-11-30T00:11:58.137Z,9.90
2022-11-30T00:12:58.262Z,10.00
2022-11-30T00:13:57.980Z,10.02
2022-11-30T00:14:57.952Z,9.95
2022-11-30T00:15:58.074Z,10.02
2022-11-30T00:16:57.928Z,9.95
2022-11-30T00:17:58.029Z,9.92
2022-11-30T00:18:57.757Z,9.90
2022-11-30T00:19:57.770Z,9.81
2022-11-30T00:20:57.899Z,9.80
2022-11-30T00:21:57.618Z,9.87
2022-11-30T00:22:57.739Z,9.91
2022-11-30T00:23:57.554Z,9.91
2022-11-30T00:24:57.733Z,9.91
2022-11-30T00:25:57.433Z,9.90
2022-11-30T00:26:57.689Z,10.00
2022-11-30T00:27:57.350Z,9.99
2022-11-30T00:28:57.553Z,9.97
2022-11-30T00:29:57.248Z,9.90
2022-11-30T00:30:57.413Z,10.00
2022-11-30T00:31:57.186Z,9.92
2022-11-30T00:32:57.378Z,9.94
2022-11-30T00:33:57.105Z,9.95
2022-11-30T00:34:57.241Z,9.94
2022-11-30T00:35:56.974Z,9.95
2022-11-30T00:36:57.175Z,9.99
2022-11-30T00:37:57.048Z,10.00
2022-11-30T00:38:57.011Z,9.92
2022-11-30T00:39:56.803Z,10.00
2022-11-30T00:40:57.029Z,9.95
2022-11-30T00:41:56.702Z,10.06
2022-11-30T00:42:57.851Z,9.99
2022-11-30T00:43:56.607Z,10.05
2022-11-30T00:44:56.789Z,10.05
2022-11-30T00:45:56.603Z,9.99
2022-11-30T00:46:56.657Z,10.05
2022-11-30T00:47:56.469Z,10.07
2022-11-30T00:48:56.377Z,10.03
2022-11-30T00:49:56.369Z,10.09
2022-11-30T00:50:56.480Z,10.07
2022-11-30T00:51:56.240Z,10.07
2022-11-30T00:52:56.384Z,10.05
2022-11-30T00:53:56.148Z,10.07
2022-11-30T00:54:56.109Z,10.07
2022-11-30T00:55:56.076Z,10.06
2022-11-30T00:56:56.319Z,10.18
2022-11-30T00:57:56.001Z,10.12
2022-11-30T00:58:56.133Z,10.15
2022-11-30T00:59:55.904Z,10.12
2022-11-30T01:00:55.865Z,10.13
2022-11-30T01:01:55.887Z,10.10
2022-11-30T01:02:55.854Z,10.15
2022-11-30T01:03:55.713Z,10.18
2022-11-30T01:04:55.832Z,10.17
2022-11-30T01:05:55.605Z,10.18
2022-11-30T01:06:55.548Z,10.23
2022-11-30T01:07:55.630Z,10.30
2022-11-30T01:08:55.799Z,10.27
2022-11-30T01:09:55.433Z,10.24
2022-11-30T01:10:55.629Z,10.23
2022-11-30T01:11:55.368Z,10.23
2022-11-30T01:12:55.286Z,10.24
2022-11-30T01:13:55.247Z,10.24
2022-11-30T01:14:55.660Z,10.23
2022-11-30T01:15:55.242Z,10.27
2022-11-30T01:16:56.422Z,10.31
2022-11-30T01:17:55.049Z,10.25
2022-11-30T01:18:55.004Z,10.25
2022-11-30T01:19:55.029Z,10.20
2022-11-30T01:20:55.064Z,10.21
2022-11-30T01:21:54.868Z,10.18
2022-11-30T01:22:55.102Z,10.25
2022-11-30T01:23:54.828Z,10.23
2022-11-30T01:24:54.729Z,10.13
2022-11-30T01:25:55.004Z,10.18
2022-11-30T01:26:54.966Z,10.23
2022-11-30T01:27:54.595Z,10.20
2022-11-30T01:28:54.708Z,10.23
2022-11-30T01:29:54.536Z,10.21
2022-11-30T01:30:54.480Z,10.27
2022-11-30T01:31:54.440Z,10.27
2022-11-30T01:32:54.537Z,10.23
2022-11-30T01:33:54.599Z,10.15
2022-11-30T01:34:54.578Z,10.18
2022-11-30T01:35:54.222Z,10.21
2022-11-30T01:36:54.181Z,10.15
2022-11-30T01:37:54.221Z,10.18
2022-11-30T01:38:54.395Z,10.13
2022-11-30T01:39:54.099Z,10.12
2022-11-30T01:40:54.390Z,10.17
2022-11-30T01:41:53.953Z,10.18
2022-11-30T01:42:53.900Z,10.21
2022-11-30T01:43:53.958Z,10.12
2022-11-30T01:44:54.029Z,10.17
2022-11-30T01:45:53.815Z,10.09
2022-11-30T01:46:54.035Z,10.06
2022-11-30T01:47:53.685Z,10.10
2022-11-30T01:48:53.671Z,10.07
2022-11-30T01:49:53.895Z,10.03
2022-11-30T01:50:53.645Z,10.07
2022-11-30T01:51:53.495Z,9.99
2022-11-30T01:52:53.667Z,10.00
2022-11-30T01:53:53.405Z,10.05
2022-11-30T01:54:53.375Z,9.94
2022-11-30T01:55:53.319Z,10.06
2022-11-30T01:56:53.529Z,10.05
2022-11-30T01:57:53.219Z,10.05
2022-11-30T01:58:53.318Z,10.09
2022-11-30T01:59:53.128Z,10.10
2022-11-30T02:00:53.357Z,10.20
2022-11-30T02:01:53.034Z,10.05
2022-11-30T02:02:53.171Z,10.10
2022-11-30T02:03:52.999Z,10.06
2022-11-30T02:04:53.131Z,10.00
2022-11-30T02:05:52.866Z,10.03
2022-11-30T02:06:52.806Z,10.02
2022-11-30T02:07:52.933Z,9.99
2022-11-30T02:08:53.163Z,9.80
2022-11-30T02:09:52.667Z,9.87
2022-11-30T02:10:52.774Z,9.94
2022-11-30T02:11:52.576Z,9.91
2022-11-30T02:12:52.533Z,9.90
2022-11-30T02:13:52.498Z,9.84
2022-11-30T02:14:52.588Z,9.90
2022-11-30T02:15:52.452Z,9.91
2022-11-30T02:16:52.665Z,9.95
2022-11-30T02:17:52.327Z,9.87
2022-11-30T02:18:52.256Z,9.82
2022-11-30T02:19:52.211Z,9.82
2022-11-30T02:20:52.446Z,9.81
2022-11-30T02:21:52.121Z,9.84
2022-11-30T02:22:52.271Z,9.84
2022-11-30T02:23:52.029Z,9.91
2022-11-30T02:24:51.988Z,9.81
2022-11-30T02:25:51.948Z,9.84
2022-11-30T02:26:52.064Z,9.82
2022-11-30T02:27:51.872Z,9.88
2022-11-30T02:28:52.080Z,9.84
2022-11-30T02:29:51.751Z,9.91
2022-11-30T02:30:51.727Z,10.00
2022-11-30T02:31:51.896Z,9.95
2022-11-30T02:32:51.747Z,9.94
2022-11-30T02:33:51.770Z,9.95
2022-11-30T02:34:51.520Z,9.94
2022-11-30T02:35:54.750Z,9.95
2022-11-30T02:36:51.726Z,10.00
2022-11-30T02:37:51.394Z,9.94
2022-11-30T02:38:51.546Z,9.90
2022-11-30T02:39:51.321Z,9.90
2022-11-30T02:40:51.349Z,9.87
2022-11-30T02:41:51.234Z,10.00
2022-11-30T02:42:51.156Z,9.90
2022-11-30T02:43:51.112Z,9.84
2022-11-30T02:44:51.378Z,9.95
2022-11-30T02:45:51.019Z,9.91
2022-11-30T02:46:51.260Z,9.82
2022-11-30T02:47:50.963Z,9.95
2022-11-30T02:48:50.884Z,9.91
2022-11-30T02:49:50.839Z,9.91
2022-11-30T02:50:51.007Z,9.90
2022-11-30T02:51:50.788Z,9.94
2022-11-30T02:52:50.837Z,9.92
2022-11-30T02:53:50.712Z,9.95
2022-11-30T02:54:50.604Z,9.87
2022-11-30T02:55:50.561Z,9.99
2022-11-30T02:56:51.053Z,9.90
2022-11-30T02:57:50.519Z,9.85
2022-11-30T02:58:50.715Z,9.95
2022-11-30T02:59:50.437Z,9.94
2022-11-30T03:00:50.337Z,9.92
2022-11-30T03:01:50.339Z,9.94
2022-11-30T03:02:50.511Z,9.90
2022-11-30T03:03:50.202Z,9.91
2022-11-30T03:04:50.332Z,10.00
2022-11-30T03:05:50.269Z,9.84
2022-11-30T03:06:50.172Z,9.92
2022-11-30T03:07:50.269Z,9.92
2022-11-30T03:08:50.147Z,9.94
2022-11-30T03:09:49.927Z,9.91
2022-11-30T03:10:50.153Z,9.95
2022-11-30T03:11:49.824Z,9.90
2022-11-30T03:12:49.794Z,9.95
2022-11-30T03:13:52.069Z,9.94
2022-11-30T03:14:50.058Z,10.02
2022-11-30T03:15:49.696Z,10.05
2022-11-30T03:16:49.773Z,9.94
2022-11-30T03:17:49.552Z,10.09
2022-11-30T03:18:49.575Z,9.99
2022-11-30T03:19:49.456Z,10.03
2022-11-30T03:20:50.823Z,10.05
2022-11-30T03:21:49.435Z,10.05
2022-11-30T03:22:51.461Z,10.03
2022-11-30T03:23:49.344Z,10.12
2022-11-30T03:24:49.527Z,10.05
2022-11-30T03:25:49.201Z,10.06
2022-11-30T03:26:50.248Z,10.10
2022-11-30T03:27:49.087Z,10.06
2022-11-30T03:28:50.351Z,10.07
2022-11-30T03:29:49.004Z,10.15
2022-11-30T03:30:48.969Z,10.17
2022-11-30T03:31:49.146Z,10.24
2022-11-30T03:32:49.074Z,10.20
2022-11-30T03:33:48.823Z,10.23
2022-11-30T03:34:49.122Z,10.15
2022-11-30T03:35:48.768Z,10.27
2022-11-30T03:36:48.675Z,10.25
2022-11-30T03:37:48.652Z,10.23
2022-11-30T03:38:48.753Z,10.24
2022-11-30T03:39:51.411Z,10.25
2022-11-30T03:40:48.719Z,10.21
2022-11-30T03:41:48.486Z,10.15
2022-11-30T03:42:48.393Z,10.17
2022-11-30T03:43:48.385Z,10.07
2022-11-30T03:44:48.972Z,10.07
2022-11-30T03:45:48.264Z,10.02
2022-11-30T03:46:48.386Z,10.00
2022-11-30T03:47:48.169Z,9.97
2022-11-30T03:48:48.118Z,9.92
2022-11-30T03:49:48.094Z,10.07
2022-11-30T03:50:48.378Z,10.03
2022-11-30T03:51:47.988Z,10.05
2022-11-30T03:52:48.395Z,10.00
2022-11-30T03:53:47.906Z,10.06
2022-11-30T03:54:48.099Z,10.05
2022-11-30T03:55:47.997Z,10.07
2022-11-30T03:56:48.009Z,10.10
2022-11-30T03:57:47.797Z,10.20
2022-11-30T03:58:48.023Z,10.15
2022-11-30T03:59:47.635Z,10.20
2022-11-30T04:00:47.576Z,10.24
2022-11-30T04:01:47.702Z,10.24
2022-11-30T04:02:47.692Z,10.31
2022-11-30T04:03:47.710Z,10.31
2022-11-30T04:04:47.794Z,10.31
2022-11-30T04:05:47.349Z,10.39
2022-11-30T04:06:47.305Z,10.36
2022-11-30T04:07:47.309Z,10.38
2022-11-30T04:08:47.695Z,10.38
2022-11-30T04:09:47.165Z,10.39
2022-11-30T04:10:47.296Z,10.36
2022-11-30T04:11:47.071Z,10.38
2022-11-30T04:12:47.029Z,10.41
2022-11-30T04:13:47.115Z,10.42
2022-11-30T04:14:47.180Z,10.42
2022-11-30T04:15:47.158Z,10.31
2022-11-30T04:16:46.859Z,10.28
2022-11-30T04:17:46.939Z,10.25
2022-11-30T04:18:46.945Z,10.31
2022-11-30T04:19:47.010Z,10.30
2022-11-30T04:20:46.979Z,10.18
2022-11-30T04:21:46.624Z,10.28
2022-11-30T04:22:46.768Z,10.24
2022-11-30T04:23:46.598Z,10.24
2022-11-30T04:24:46.698Z,10.27
2022-11-30T04:25:46.592Z,10.30
2022-11-30T04:26:46.663Z,10.27
2022-11-30T04:27:47.633Z,10.23
2022-11-30T04:28:46.334Z,10.28
2022-11-30T04:29:46.442Z,10.23
2022-11-30T04:30:46.199Z,10.33
2022-11-30T04:31:46.225Z,10.30
2022-11-30T04:32:46.434Z,10.31
2022-11-30T04:33:46.065Z,10.27
2022-11-30T04:34:46.623Z,10.31
2022-11-30T04:35:45.975Z,10.36
2022-11-30T04:36:45.924Z,10.38
2022-11-30T04:37:46.241Z,10.34
2022-11-30T04:38:46.134Z,10.41
2022-11-30T04:39:46.086Z,10.36
2022-11-30T04:40:45.748Z,10.42
2022-11-30T04:41:45.892Z,10.42
2022-11-30T04:42:45.648Z,10.27
2022-11-30T04:43:45.701Z,10.30
2022-11-30T04:44:46.337Z,10.28
2022-11-30T04:45:45.515Z,10.33
2022-11-30T04:46:45.756Z,10.28
2022-11-30T04:47:45.474Z,10.31
2022-11-30T04:48:45.382Z,10.30
2022-11-30T04:49:45.596Z,10.31
2022-11-30T04:50:45.554Z,10.34
2022-11-30T04:51:45.241Z,10.30
2022-11-30T04:52:45.352Z,10.28
2022-11-30T04:53:45.174Z,10.31
2022-11-30T04:54:45.353Z,10.27
2022-11-30T04:55:45.368Z,10.28
2022-11-30T04:56:45.039Z,10.31
2022-11-30T04:57:45.231Z,10.28
2022-11-30T04:58:44.917Z,10.33
2022-11-30T04:59:44.994Z,10.30
2022-11-30T05:00:44.996Z,10.39
2022-11-30T05:01:44.852Z,10.31
2022-11-30T05:02:50.662Z,10.39
2022-11-30T05:03:44.685Z,10.33
2022-11-30T05:04:45.251Z,10.30
2022-11-30T05:05:44.600Z,10.34
2022-11-30T05:06:44.550Z,10.30
2022-11-30T05:07:44.772Z,10.33
2022-11-30T05:08:44.644Z,10.28
2022-11-30T05:09:44.413Z,10.33
2022-11-30T05:10:48.841Z,10.31
2022-11-30T05:11:44.420Z,10.30
2022-11-30T05:12:44.527Z,10.34
2022-11-30T05:13:44.486Z,10.28
2022-11-30T05:14:44.293Z,10.25
2022-11-30T05:15:44.422Z,10.31
2022-11-30T05:16:44.094Z,10.25
2022-11-30T05:17:44.208Z,10.23
2022-11-30T05:18:44.210Z,10.25
2022-11-30T05:19:43.950Z,10.25
2022-11-30T05:20:44.014Z,10.24
2022-11-30T05:21:45.818Z,10.28
2022-11-30T05:22:44.031Z,10.15
2022-11-30T05:23:43.774Z,10.24
2022-11-30T05:24:43.932Z,10.25
2022-11-30T05:25:44.000Z,10.27
2022-11-30T05:26:43.643Z,10.27
2022-11-30T05:27:43.705Z,10.23
2022-11-30T05:28:43.605Z,10.28
2022-11-30T05:29:43.784Z,10.20
2022-11-30T05:30:43.902Z,10.23
2022-11-30T05:31:43.459Z,10.18
2022-11-30T05:32:43.487Z,10.18
2022-11-30T05:33:43.318Z,10.23
2022-11-30T05:34:50.574Z,10.36
2022-11-30T05:35:43.229Z,10.30
2022-11-30T05:36:43.366Z,10.33
2022-11-30T05:37:43.323Z,10.24
2022-11-30T05:38:43.102Z,10.28
2022-11-30T05:39:43.132Z,10.28
2022-11-30T05:40:42.994Z,10.20
2022-11-30T05:41:43.149Z,10.28
2022-11-30T05:42:42.947Z,10.27
2022-11-30T05:43:43.006Z,10.30
2022-11-30T05:44:42.964Z,10.28
2022-11-30T05:45:42.767Z,10.30
2022-11-30T05:46:42.819Z,10.34
2022-11-30T05:47:42.676Z,10.25
2022-11-30T05:48:42.623Z,10.27
2022-11-30T05:49:42.823Z,10.23
2022-11-30T05:50:42.668Z,10.23
2022-11-30T05:51:42.618Z,10.27
2022-11-30T05:52:42.490Z,10.20
2022-11-30T05:53:42.629Z,10.07
2022-11-30T05:54:42.436Z,10.13
2022-11-30T05:55:50.069Z,10.13
2022-11-30T05:56:42.449Z,10.06
2022-11-30T05:57:49.372Z,10.15
2022-11-30T05:58:42.254Z,10.12
2022-11-30T05:59:42.122Z,10.09
2022-11-30T06:03:49.278Z,10.02
2022-11-30T06:04:47.017Z,10.00
2022-11-30T06:05:46.758Z,9.91
2022-11-30T06:06:46.721Z,9.88
2022-11-30T06:07:46.861Z,9.81
2022-11-30T06:08:46.623Z,9.90
2022-11-30T06:09:46.647Z,9.90
2022-11-30T06:10:46.532Z,9.82
2022-11-30T06:11:46.491Z,9.84
2022-11-30T06:12:46.450Z,9.81
2022-11-30T06:13:46.463Z,9.91
2022-11-30T06:14:46.708Z,9.67
2022-11-30T06:15:46.673Z,9.73
2022-11-30T06:16:46.301Z,9.73
2022-11-30T06:17:46.201Z,9.70
2022-11-30T06:18:46.159Z,9.74
2022-11-30T06:19:46.304Z,9.66
2022-11-30T06:20:46.066Z,9.74
2022-11-30T06:21:46.106Z,9.74
2022-11-30T06:22:45.974Z,9.69
2022-11-30T06:23:45.929Z,9.59
2022-11-30T06:24:46.084Z,9.67
2022-11-30T06:25:45.927Z,9.63
2022-11-30T06:26:45.791Z,9.56
2022-11-30T06:27:46.143Z,9.54
2022-11-30T06:28:48.527Z,9.54
2022-11-30T06:29:45.647Z,9.51
2022-11-30T06:30:45.759Z,9.49
2022-11-30T06:31:45.569Z,9.56
2022-11-30T06:32:45.773Z,9.49
2022-11-30T06:33:45.462Z,9.59
2022-11-30T06:34:45.776Z,9.55
2022-11-30T06:35:45.602Z,9.55
2022-11-30T06:36:45.328Z,9.49
2022-11-30T06:37:45.399Z,9.52
2022-11-30T06:38:45.249Z,9.49
2022-11-30T06:40:10.141Z,9.54
2022-11-30T06:40:45.217Z,9.40
2022-11-30T06:41:47.101Z,9.54
2022-11-30T06:42:45.053Z,9.56
2022-11-30T06:43:45.239Z,9.52
2022-11-30T06:44:45.360Z,9.47
2022-11-30T06:45:45.095Z,9.49
2022-11-30T06:46:44.894Z,9.54
2022-11-30T06:47:44.819Z,9.54
2022-11-30T06:48:44.879Z,9.54
2022-11-30T06:49:44.728Z,9.62
2022-11-30T06:50:49.866Z,9.70
2022-11-30T06:51:44.633Z,9.70
2022-11-30T06:52:44.689Z,9.70
2022-11-30T06:53:44.696Z,9.73
2022-11-30T06:54:44.680Z,9.77
2022-11-30T06:55:45.535Z,9.66
2022-11-30T06:56:44.567Z,9.72
2022-11-30T06:57:44.522Z,9.77
2022-11-30T06:58:44.316Z,9.74
2022-11-30T06:59:44.259Z,9.80
2022-11-30T07:00:44.406Z,9.85
2022-11-30T07:01:44.169Z,9.82
2022-11-30T07:02:44.352Z,9.87
2022-11-30T07:03:44.150Z,9.85
2022-11-30T07:04:44.377Z,9.69
2022-11-30T07:05:44.001Z,9.76
2022-11-30T07:06:44.175Z,9.69
2022-11-30T07:07:43.955Z,9.76
2022-11-30T07:08:44.193Z,9.72
2022-11-30T07:09:43.807Z,9.72
2022-11-30T07:10:44.009Z,9.73
2022-11-30T07:11:43.748Z,9.73
2022-11-30T07:12:43.814Z,9.69
2022-11-30T07:13:43.625Z,9.67
2022-11-30T07:14:43.629Z,9.70
2022-11-30T07:15:43.551Z,9.76
2022-11-30T07:16:43.687Z,9.69
2022-11-30T07:17:43.866Z,9.63
2022-11-30T07:18:43.401Z,9.56
2022-11-30T07:19:43.461Z,9.67
2022-11-30T07:20:43.320Z,9.66
2022-11-30T07:21:43.475Z,9.67
2022-11-30T07:22:43.209Z,9.64
2022-11-30T07:23:43.182Z,9.70
2022-11-30T07:24:43.290Z,9.69
2022-11-30T07:25:43.068Z,9.67
2022-11-30T07:26:43.099Z,9.74
2022-11-30T07:27:43.114Z,9.72
2022-11-30T07:28:43.111Z,9.80
2022-11-30T07:29:43.171Z,9.81
2022-11-30T07:30:42.928Z,9.88
2022-11-30T07:31:42.806Z,9.77
2022-11-30T07:32:42.937Z,9.88
2022-11-30T07:33:42.700Z,9.84
2022-11-30T07:34:42.761Z,9.87
2022-11-30T07:35:42.627Z,9.85
2022-11-30T07:36:42.761Z,9.87
2022-11-30T07:37:42.518Z,9.85
2022-11-30T07:38:42.572Z,9.87
2022-11-30T07:39:42.428Z,9.82
2022-11-30T07:40:42.586Z,9.91
2022-11-30T07:41:42.436Z,9.97
2022-11-30T07:42:42.396Z,9.92
2022-11-30T07:43:42.257Z,10.02
2022-11-30T07:44:42.429Z,9.97
2022-11-30T07:45:42.237Z,9.94
2022-11-30T07:46:42.215Z,9.92
2022-11-30T07:47:42.139Z,10.06
2022-11-30T07:48:42.232Z,9.94
2022-11-30T07:49:41.976Z,10.03
2022-11-30T07:50:42.044Z,9.97
2022-11-30T07:51:41.881Z,9.91
2022-11-30T07:52:42.064Z,10.00
2022-11-30T07:53:41.906Z,9.91
2022-11-30T07:54:41.866Z,9.91
2022-11-30T07:55:41.712Z,9.85
2022-11-30T07:56:41.881Z,9.81
2022-11-30T07:57:41.600Z,9.91
2022-11-30T07:58:41.689Z,9.85
2022-11-30T07:59:41.534Z,9.85
2022-11-30T08:00:41.755Z,9.87
2022-11-30T08:01:41.520Z,9.90
2022-11-30T08:02:41.515Z,9.92
2022-11-30T08:03:41.321Z,9.91
2022-11-30T08:04:41.486Z,9.82
2022-11-30T08:05:41.390Z,9.91
2022-11-30T08:06:41.344Z,9.87
2022-11-30T08:07:41.177Z,9.87
2022-11-30T08:08:41.163Z,9.84
2022-11-30T08:09:41.051Z,9.88
2022-11-30T08:10:41.164Z,9.84
2022-11-30T08:11:40.994Z,9.87
2022-11-30T08:12:40.974Z,9.88
2022-11-30T08:13:40.859Z,9.87
2022-11-30T08:15:03.659Z,9.95
2022-11-30T08:15:40.994Z,9.90
2022-11-30T08:16:40.768Z,9.88
2022-11-30T08:17:41.010Z,9.88
2022-11-30T08:18:40.632Z,9.84
2022-11-30T08:19:40.821Z,9.72
2022-11-30T08:20:42.446Z,9.70
2022-11-30T08:21:40.604Z,9.66
2022-11-30T08:22:40.456Z,9.77
2022-11-30T08:23:40.487Z,9.87
2022-11-30T08:24:40.416Z,9.91
2022-11-30T08:25:40.379Z,10.02
2022-11-30T08:26:40.432Z,10.05
2022-11-30T08:27:40.239Z,9.95
2022-11-30T08:28:40.184Z,9.91
2022-11-30T08:29:40.350Z,10.05
2022-11-30T08:30:40.337Z,10.06
2022-11-30T08:31:40.032Z,10.20
2022-11-30T08:32:40.114Z,10.18
2022-11-30T08:33:39.941Z,10.09
2022-11-30T08:34:40.325Z,10.07
2022-11-30T08:35:48.021Z,10.07
2022-11-30T08:36:39.804Z,10.15
2022-11-30T08:37:39.754Z,10.28
2022-11-30T08:38:39.717Z,10.18
2022-11-30T08:39:39.671Z,10.06
2022-11-30T08:40:39.728Z,10.12
2022-11-30T08:41:39.573Z,10.06
2022-11-30T08:42:39.532Z,10.10
2022-11-30T08:43:39.484Z,10.09
2022-11-30T08:44:39.436Z,10.20
2022-11-30T08:45:39.392Z,10.20
2022-11-30T08:46:54.543Z,10.24
2022-11-30T08:47:39.328Z,10.34
2022-11-30T08:48:39.254Z,10.30
2022-11-30T08:49:39.206Z,10.31
2022-11-30T08:50:39.162Z,10.31
2022-11-30T08:52:08.638Z,10.18
2022-11-30T08:52:39.096Z,10.21
2022-11-30T08:53:39.022Z,10.12
2022-11-30T08:54:38.984Z,10.23
2022-11-30T08:55:38.940Z,10.09
2022-11-30T08:56:38.890Z,10.12
2022-11-30T08:57:38.843Z,10.12
2022-11-30T08:58:38.825Z,10.24
2022-11-30T08:59:38.751Z,10.21
2022-11-30T09:00:38.708Z,10.28
2022-11-30T09:01:38.655Z,10.31
2022-11-30T09:02:38.646Z,10.42
2022-11-30T09:03:38.566Z,10.33
2022-11-30T09:04:38.548Z,10.51
2022-11-30T09:05:38.472Z,10.39
2022-11-30T09:06:38.432Z,10.48
2022-11-30T09:07:38.447Z,10.42
2022-11-30T09:08:40.883Z,10.48
2022-11-30T09:09:38.293Z,10.39
2022-11-30T09:10:38.272Z,10.43
2022-11-30T09:11:38.204Z,10.48
2022-11-30T09:12:38.197Z,10.53
2022-11-30T09:13:38.106Z,10.59
2022-11-30T09:14:38.072Z,10.42
2022-11-30T09:15:38.079Z,10.30
2022-11-30T09:16:37.974Z,10.25
2022-11-30T09:17:37.969Z,10.28
2022-11-30T09:18:37.896Z,10.42
2022-11-30T09:19:37.832Z,10.46
2022-11-30T09:20:37.792Z,10.34
2022-11-30T09:21:37.744Z,10.45
2022-11-30T09:22:37.699Z,10.42
2022-11-30T09:23:37.649Z,10.25
2022-11-30T09:24:37.630Z,10.24
2022-11-30T09:25:37.558Z,10.34
2022-11-30T09:26:37.525Z,10.25
2022-11-30T09:27:37.471Z,10.34
2022-11-30T09:28:37.427Z,10.31
2022-11-30T09:29:37.377Z,10.31
2022-11-30T09:30:37.388Z,10.21
2022-11-30T09:31:37.287Z,10.09
2022-11-30T09:32:37.247Z,10.09
2022-11-30T09:33:37.194Z,10.20
2022-11-30T09:34:37.151Z,10.21
2022-11-30T09:35:37.176Z,10.24
2022-11-30T09:36:37.058Z,10.28
2022-11-30T09:37:37.033Z,10.30
2022-11-30T09:38:36.969Z,10.33
2022-11-30T09:39:36.933Z,10.27
2022-11-30T09:40:36.880Z,10.24
2022-11-30T09:41:36.832Z,10.15
2022-11-30T09:42:36.784Z,10.07
2022-11-30T09:43:36.760Z,10.06
2022-11-30T09:44:36.695Z,9.97
2022-11-30T09:45:36.644Z,9.88
2022-11-30T09:46:36.679Z,9.91
2022-11-30T09:47:36.557Z,9.95
2022-11-30T09:48:36.512Z,9.95
2022-11-30T09:49:36.459Z,9.92
2022-11-30T09:50:36.644Z,9.97
2022-11-30T09:51:36.369Z,9.95
2022-11-30T09:52:36.364Z,9.88
2022-11-30T09:53:36.276Z,9.91
2022-11-30T09:54:36.236Z,9.90
2022-11-30T09:55:36.210Z,9.91
2022-11-30T09:56:36.147Z,9.92
2022-11-30T09:57:36.095Z,9.92
2022-11-30T09:58:36.076Z,9.82
2022-11-30T09:59:36.002Z,9.97
2022-11-30T10:00:35.957Z,10.00
2022-11-30T10:01:37.780Z,9.87
2022-11-30T10:02:35.925Z,9.77
2022-11-30T10:03:35.897Z,9.85
2022-11-30T10:04:35.798Z,9.90
2022-11-30T10:05:35.737Z,9.87
2022-11-30T10:06:35.690Z,9.88
2022-11-30T10:07:35.728Z,9.84
2022-11-30T10:08:35.615Z,9.87
2022-11-30T10:09:35.546Z,9.84
2022-11-30T10:10:35.545Z,9.84
2022-11-30T10:11:35.455Z,9.70
2022-11-30T10:12:35.406Z,9.51
2022-11-30T10:13:35.359Z,9.54
2022-11-30T10:14:35.346Z,9.49
2022-11-30T10:15:35.351Z,9.56
2022-11-30T10:16:35.228Z,9.66
2022-11-30T10:17:35.177Z,9.70
2022-11-30T10:18:35.164Z,9.74
2022-11-30T10:19:35.090Z,9.58
2022-11-30T10:20:35.037Z,9.47
2022-11-30T10:21:34.991Z,9.44
2022-11-30T10:22:34.947Z,9.45
2022-11-30T10:23:34.899Z,9.31
2022-11-30T10:24:34.879Z,9.48
2022-11-30T10:25:34.820Z,9.44
2022-11-30T10:26:34.771Z,9.48
2022-11-30T10:27:34.716Z,9.45
2022-11-30T10:28:49.795Z,9.42
2022-11-30T10:29:34.621Z,9.52
2022-11-30T10:30:34.594Z,9.47
2022-11-30T10:31:34.574Z,9.55
2022-11-30T10:32:34.481Z,9.62
2022-11-30T10:33:38.495Z,9.64
2022-11-30T10:34:34.403Z,9.66
2022-11-30T10:35:34.351Z,9.67
2022-11-30T10:36:34.332Z,9.67
2022-11-30T10:37:34.254Z,9.76
2022-11-30T10:38:34.204Z,9.74
2022-11-30T10:39:34.163Z,9.59
2022-11-30T10:40:34.118Z,9.45
2022-11-30T10:41:34.068Z,9.40
2022-11-30T10:42:34.045Z,9.42
2022-11-30T10:43:33.980Z,9.49
2022-11-30T10:44:33.935Z,9.44
2022-11-30T10:45:33.928Z,9.37
2022-11-30T10:46:33.875Z,9.42
2022-11-30T10:47:33.797Z,9.54
2022-11-30T10:48:33.748Z,9.44
2022-11-30T10:49:33.698Z,9.44
2022-11-30T10:50:33.652Z,9.48
2022-11-30T10:51:33.666Z,9.52
2022-11-30T10:52:33.564Z,9.42
2022-11-30T10:53:33.517Z,9.51
2022-11-30T10:54:33.475Z,9.58
2022-11-30T10:55:33.422Z,9.51
2022-11-30T10:56:33.382Z,9.54
2022-11-30T10:57:33.416Z,9.66
2022-11-30T10:58:33.280Z,9.72
2022-11-30T10:59:33.243Z,9.76
2022-11-30T11:00:33.197Z,9.77
2022-11-30T11:01:33.249Z,9.84
2022-11-30T11:02:33.128Z,9.80
2022-11-30T11:03:33.065Z,9.87
2022-11-30T11:04:33.053Z,9.80
2022-11-30T11:05:32.963Z,9.67
2022-11-30T11:06:32.977Z,9.74
2022-11-30T11:07:32.960Z,9.73
2022-11-30T11:08:32.826Z,9.81
2022-11-30T11:09:32.796Z,9.88
2022-11-30T11:10:32.734Z,9.94
2022-11-30T11:11:32.689Z,9.97
2022-11-30T11:12:32.642Z,9.97
2022-11-30T11:13:32.595Z,10.05
2022-11-30T11:14:36.447Z,9.99
2022-11-30T11:15:32.595Z,10.13
2022-11-30T11:16:32.459Z,10.13
2022-11-30T11:17:32.424Z,10.17
2022-11-30T11:18:32.367Z,10.25
2022-11-30T11:19:32.316Z,10.33
2022-11-30T11:20:32.274Z,10.31
2022-11-30T11:21:32.454Z,10.34
2022-11-30T11:22:32.179Z,10.46
2022-11-30T11:23:32.133Z,10.36
2022-11-30T11:24:32.095Z,10.36
2022-11-30T11:25:32.043Z,10.43
2022-11-30T11:26:31.999Z,10.28
2022-11-30T11:27:32.076Z,10.45
2022-11-30T11:28:31.981Z,10.43
2022-11-30T11:29:31.869Z,10.27
2022-11-30T11:30:31.819Z,10.30
2022-11-30T11:32:00.179Z,10.27
2022-11-30T11:32:31.723Z,10.42
2022-11-30T11:33:31.730Z,10.41
2022-11-30T11:34:31.640Z,10.33
2022-11-30T11:35:32.833Z,10.38
2022-11-30T11:36:31.544Z,10.51
2022-11-30T11:37:53.747Z,10.45
2022-11-30T11:38:31.523Z,10.43
2022-11-30T11:39:31.704Z,10.42
2022-11-30T11:40:31.574Z,10.51
2022-11-30T11:41:31.324Z,10.45
2022-11-30T11:42:31.448Z,10.41
2022-11-30T11:43:31.224Z,10.42
2022-11-30T11:44:31.393Z,10.49
2022-11-30T11:45:31.159Z,10.53
2022-11-30T11:46:31.386Z,10.45
2022-11-30T11:47:31.038Z,10.48
2022-11-30T11:48:31.086Z,10.55
2022-11-30T11:49:30.992Z,10.43
2022-11-30T11:51:30.857Z,10.31
2022-11-30T11:52:30.927Z,10.21
2022-11-30T11:53:30.801Z,10.30
2022-11-30T11:54:30.928Z,10.34
2022-11-30T11:55:30.674Z,10.38
2022-11-30T11:56:30.655Z,10.48
2022-11-30T11:57:30.582Z,10.59
2022-11-30T11:58:31.829Z,10.62
2022-11-30T11:59:32.751Z,10.80
2022-11-30T12:00:30.568Z,10.84
2022-11-30T12:01:45.490Z,10.76
2022-11-30T12:02:30.920Z,10.86
2022-11-30T12:03:30.585Z,10.89
2022-11-30T12:04:30.317Z,10.98
2022-11-30T12:05:30.331Z,10.98
2022-11-30T12:06:30.178Z,10.90
2022-11-30T12:07:30.437Z,10.90
2022-11-30T12:08:30.143Z,11.00
2022-11-30T12:09:30.214Z,10.98
2022-11-30T12:10:58.247Z,10.90
2022-11-30T12:11:29.959Z,10.84
2022-11-30T12:12:29.908Z,10.87
2022-11-30T12:13:30.172Z,10.87
2022-11-30T12:14:29.833Z,10.87
2022-11-30T12:15:30.053Z,10.79
2022-11-30T12:16:29.785Z,10.90
2022-11-30T12:17:29.864Z,10.94
2022-11-30T12:18:29.923Z,10.86
2022-11-30T12:19:29.877Z,10.92
2022-11-30T12:20:29.551Z,10.83
2022-11-30T12:21:29.726Z,10.67
2022-11-30T12:22:29.466Z,10.59
2022-11-30T12:23:29.703Z,10.64
2022-11-30T12:24:29.391Z,10.62
2022-11-30T12:25:29.513Z,10.72
2022-11-30T12:26:29.286Z,10.76
2022-11-30T12:27:29.344Z,10.55
2022-11-30T12:28:29.197Z,10.39
2022-11-30T12:29:29.339Z,10.36
2022-11-30T12:30:29.391Z,10.28
2022-11-30T12:31:29.181Z,10.30
2022-11-30T12:32:29.000Z,10.20
2022-11-30T12:33:29.185Z,10.09
2022-11-30T12:34:28.936Z,10.12
2022-11-30T12:35:28.967Z,10.23
2022-11-30T12:36:29.048Z,10.18
2022-11-30T12:37:28.987Z,10.17
2022-11-30T12:38:28.728Z,10.30
2022-11-30T12:39:28.857Z,10.41
2022-11-30T12:40:28.639Z,10.38
2022-11-30T12:41:28.827Z,10.51
2022-11-30T12:42:28.544Z,10.48
2022-11-30T12:43:28.644Z,10.48
2022-11-30T12:44:28.453Z,10.42
2022-11-30T12:45:28.648Z,10.45
2022-11-30T12:46:28.396Z,10.46
2022-11-30T12:47:28.562Z,10.41
2022-11-30T12:48:28.554Z,10.51
2022-11-30T12:49:28.466Z,10.42
2022-11-30T12:50:28.174Z,10.31
2022-11-30T12:51:29.947Z,10.23
2022-11-30T12:52:28.102Z,10.05
2022-11-30T12:53:28.288Z,10.05
2022-11-30T12:54:27.997Z,9.87
2022-11-30T12:55:28.100Z,9.95
2022-11-30T12:56:27.902Z,9.90
2022-11-30T12:57:28.022Z,9.85
2022-11-30T12:58:27.830Z,9.87
2022-11-30T12:59:28.054Z,9.91
2022-11-30T13:00:27.795Z,9.85
2022-11-30T13:01:27.931Z,9.91
2022-11-30T13:02:27.666Z,9.85
2022-11-30T13:03:27.657Z,9.95
2022-11-30T13:04:27.542Z,10.00
2022-11-30T13:05:27.754Z,9.88
2022-11-30T13:06:27.451Z,9.67
2022-11-30T13:07:27.488Z,9.80